createdAt,value
2017-11-07T00:00:21.840Z,8.35
2017-11-07T00:02:50.069Z,7.90
2017-11-07T00:05:17.525Z,8.90
2017-11-07T00:07:45.005Z,8.52
2017-11-07T00:10:12.440Z,8.05
2017-11-07T00:12:39.916Z,7.60
2017-11-07T00:15:08.446Z,8.32
2017-11-07T00:17:35.909Z,8.05
2017-11-07T00:20:04.146Z,9.50
2017-11-07T00:22:35.613Z,8.82
2017-11-07T00:25:03.112Z,7.70
2017-11-07T00:27:30.553Z,7.30
2017-11-07T00:29:58.057Z,8.50
2017-11-07T00:32:25.512Z,8.55
2017-11-07T00:34:53.042Z,7.65
2017-11-07T00:37:20.504Z,9.60
2017-11-07T00:39:47.949Z,8.70
2017-11-07T00:42:15.477Z,9.00
2017-11-07T00:44:43.682Z,9.27
2017-11-07T00:47:11.981Z,9.38
2017-11-07T00:49:39.425Z,8.80
2017-11-07T00:52:07.652Z,9.55
2017-11-07T00:54:35.115Z,8.93
2017-11-07T00:57:02.540Z,8.70
2017-11-07T00:59:30.930Z,8.50
2017-11-07T01:01:58.387Z,9.45
2017-11-07T01:04:25.833Z,9.07
2017-11-07T01:06:53.288Z,9.40
2017-11-07T01:09:21.525Z,10.45
2017-11-07T01:11:49.405Z,8.77
2017-11-07T01:14:16.881Z,9.38
2017-11-07T01:16:44.335Z,8.93
2017-11-07T01:19:11.799Z,9.73
2017-11-07T01:21:42.852Z,9.80
2017-11-07T01:24:11.058Z,9.68
2017-11-07T01:26:38.530Z,9.25
2017-11-07T01:29:05.967Z,9.05
2017-11-07T01:31:33.430Z,10.30
2017-11-07T01:34:00.879Z,8.95
2017-11-07T01:36:28.319Z,9.23
2017-11-07T01:38:56.522Z,9.30
2017-11-07T01:41:23.988Z,9.52
2017-11-07T01:43:52.217Z,9.18
2017-11-07T01:46:19.677Z,9.25
2017-11-07T01:48:47.184Z,10.48
2017-11-07T01:51:14.645Z,9.65
2017-11-07T01:53:42.103Z,8.70
2017-11-07T01:56:09.568Z,10.50
2017-11-07T01:58:37.158Z,8.70
2017-11-07T02:01:04.619Z,9.40
2017-11-07T02:03:32.052Z,9.70
2017-11-07T02:05:59.512Z,9.10
2017-11-07T02:08:26.954Z,10.48
2017-11-07T02:10:54.420Z,9.50
2017-11-07T02:13:22.662Z,9.38
2017-11-07T02:15:50.109Z,9.77
2017-11-07T02:18:17.546Z,10.30
2017-11-07T02:20:45.790Z,10.88
2017-11-07T02:23:13.222Z,9.02
2017-11-07T02:25:41.291Z,9.23
2017-11-07T02:28:09.528Z,8.68
2017-11-07T02:30:37.000Z,10.20
2017-11-07T02:33:04.462Z,11.48
2017-11-07T02:35:31.909Z,9.23
2017-11-07T02:38:01.060Z,9.85
2017-11-07T02:40:28.517Z,8.90
2017-11-07T02:42:55.961Z,10.18
2017-11-07T02:45:23.450Z,9.32
2017-11-07T02:47:50.898Z,9.80
2017-11-07T02:50:18.621Z,9.60
2017-11-07T02:52:46.916Z,10.52
2017-11-07T02:55:14.380Z,10.02
2017-11-07T02:57:42.503Z,10.27
2017-11-07T03:00:09.972Z,10.07
2017-11-07T03:02:40.500Z,9.88
2017-11-07T03:05:07.936Z,10.50
2017-11-07T03:07:35.480Z,9.35
2017-11-07T03:10:02.931Z,10.30
2017-11-07T03:12:30.407Z,10.90
2017-11-07T03:14:57.855Z,10.02
2017-11-07T03:17:26.077Z,10.75
2017-11-07T03:19:54.272Z,9.25
2017-11-07T03:22:21.713Z,9.73
2017-11-07T03:24:49.932Z,9.65
2017-11-07T03:27:17.500Z,9.73
2017-11-07T03:29:44.957Z,9.07
2017-11-07T03:32:13.203Z,10.13
2017-11-07T03:34:40.678Z,9.70
2017-11-07T03:37:08.166Z,10.90
2017-11-07T03:39:35.687Z,10.43
2017-11-07T03:42:03.892Z,9.70
2017-11-07T03:44:31.387Z,9.43
2017-11-07T03:46:59.079Z,12.88
2017-11-07T03:49:26.519Z,10.15
2017-11-07T03:51:53.984Z,10.20
2017-11-07T03:54:21.412Z,10.50
2017-11-07T03:56:48.888Z,10.38
2017-11-07T03:59:16.967Z,9.27
2017-11-07T04:01:44.417Z,9.10
2017-11-07T04:04:11.891Z,8.45
2017-11-07T04:06:39.374Z,10.45
2017-11-07T04:09:06.833Z,10.57
2017-11-07T04:11:34.263Z,9.85
2017-11-07T04:14:01.720Z,8.30
2017-11-07T04:16:29.163Z,9.80
2017-11-07T04:18:56.619Z,8.20
2017-11-07T04:21:24.816Z,9.35
2017-11-07T04:23:52.272Z,9.80
2017-11-07T04:26:20.513Z,10.02
2017-11-07T04:28:47.936Z,8.65
2017-11-07T04:31:16.155Z,10.75
2017-11-07T04:33:43.728Z,9.30
2017-11-07T04:36:11.958Z,9.13
2017-11-07T04:38:39.389Z,9.30
2017-11-07T04:41:06.859Z,9.88
2017-11-07T04:43:34.297Z,9.38
2017-11-07T04:46:01.848Z,8.70
2017-11-07T04:48:29.312Z,10.55
2017-11-07T04:50:56.747Z,9.07
2017-11-07T04:53:24.706Z,10.07
2017-11-07T04:55:52.146Z,9.70
2017-11-07T04:58:19.612Z,10.18
2017-11-07T05:00:51.992Z,9.07
2017-11-07T05:03:19.572Z,9.50
2017-11-07T05:05:47.016Z,11.32
2017-11-07T05:08:15.225Z,11.18
2017-11-07T05:10:43.331Z,10.50
2017-11-07T05:13:10.828Z,9.63
2017-11-07T05:15:38.320Z,9.57
2017-11-07T05:18:06.576Z,9.50
2017-11-07T05:20:34.019Z,9.80
2017-11-07T05:23:02.254Z,9.40
2017-11-07T05:25:29.690Z,10.15
2017-11-07T05:27:57.912Z,10.63
2017-11-07T05:30:25.390Z,10.23
2017-11-07T05:32:52.865Z,10.00
2017-11-07T05:35:20.293Z,10.77
2017-11-07T05:37:47.741Z,10.27
2017-11-07T05:40:15.191Z,9.75
2017-11-07T05:42:42.648Z,10.93
2017-11-07T05:45:10.104Z,10.77
2017-11-07T05:47:39.036Z,10.50
2017-11-07T05:50:06.513Z,10.48
2017-11-07T05:52:33.988Z,10.25
2017-11-07T05:55:01.474Z,9.80
2017-11-07T05:57:28.957Z,10.48
2017-11-07T05:59:56.408Z,11.43
2017-11-07T06:02:23.838Z,12.05
2017-11-07T06:04:51.296Z,10.10
2017-11-07T06:07:18.734Z,10.25
2017-11-07T06:09:46.201Z,11.38
2017-11-07T06:12:13.652Z,11.80
2017-11-07T06:14:41.888Z,11.35
2017-11-07T06:17:09.424Z,10.65
2017-11-07T06:19:37.637Z,11.50
2017-11-07T06:22:05.103Z,11.70
2017-11-07T06:24:33.339Z,11.48
2017-11-07T06:27:00.799Z,12.40
2017-11-07T06:29:28.292Z,12.27
2017-11-07T06:31:55.744Z,11.77
2017-11-07T06:34:23.253Z,13.20
2017-11-07T06:36:50.726Z,12.63
2017-11-07T06:39:18.162Z,11.85
2017-11-07T06:41:45.678Z,11.68
2017-11-07T06:44:13.262Z,10.75
2017-11-07T06:46:40.709Z,13.62
2017-11-07T06:49:08.161Z,13.30
2017-11-07T06:51:35.612Z,12.43
2017-11-07T06:54:03.843Z,12.00
2017-11-07T06:56:31.281Z,12.27
2017-11-07T06:58:59.518Z,11.48
2017-11-07T07:01:26.983Z,11.95
2017-11-07T07:03:54.448Z,11.55
2017-11-07T07:06:21.924Z,11.25
2017-11-07T07:08:49.379Z,12.88
2017-11-07T07:11:17.599Z,12.25
2017-11-07T07:13:45.073Z,13.05
2017-11-07T07:16:12.532Z,10.82
2017-11-07T07:18:40.119Z,10.88
2017-11-07T07:21:07.594Z,11.00
2017-11-07T07:23:35.064Z,13.25
2017-11-07T07:26:04.180Z,12.85
2017-11-07T07:28:31.638Z,11.18
2017-11-07T07:30:59.213Z,11.32
2017-11-07T07:33:27.448Z,13.25
2017-11-07T07:35:54.936Z,12.50
2017-11-07T07:38:22.395Z,13.35
2017-11-07T07:40:50.376Z,12.82
2017-11-07T07:43:17.807Z,11.82
2017-11-07T07:45:46.045Z,12.00
2017-11-07T07:48:13.524Z,11.65
2017-11-07T07:50:40.990Z,11.75
2017-11-07T07:53:08.415Z,12.65
2017-11-07T07:55:40.049Z,12.50
2017-11-07T07:58:07.505Z,11.88
2017-11-07T08:00:34.947Z,12.20
2017-11-07T08:03:04.128Z,12.07
2017-11-07T08:05:31.611Z,13.05
2017-11-07T08:07:59.047Z,11.68
2017-11-07T08:10:26.549Z,10.73
2017-11-07T08:12:53.985Z,11.27
2017-11-07T08:15:21.468Z,11.57
2017-11-07T08:17:48.968Z,13.10
2017-11-07T08:20:16.424Z,11.80
2017-11-07T08:22:43.887Z,12.32
2017-11-07T08:25:11.316Z,10.93
2017-11-07T08:27:38.783Z,12.35
2017-11-07T08:30:10.456Z,12.68
2017-11-07T08:32:37.908Z,12.50
2017-11-07T08:35:05.367Z,12.35
2017-11-07T08:37:32.818Z,12.75
2017-11-07T08:40:04.923Z,11.73
2017-11-07T08:42:32.379Z,11.85
2017-11-07T08:44:59.856Z,12.27
2017-11-07T08:47:27.328Z,11.18
2017-11-07T08:49:54.771Z,13.32
2017-11-07T08:52:22.263Z,13.10
2017-11-07T08:54:50.504Z,12.70
2017-11-07T08:57:17.965Z,11.77
2017-11-07T08:59:45.415Z,11.63
2017-11-07T09:02:12.875Z,12.13
2017-11-07T09:04:41.092Z,12.52
2017-11-07T09:07:08.547Z,12.77
2017-11-07T09:09:36.746Z,12.85
2017-11-07T09:12:04.228Z,11.77
2017-11-07T09:14:32.415Z,12.65
2017-11-07T09:17:00.724Z,12.93
2017-11-07T09:19:28.200Z,12.40
2017-11-07T09:21:55.679Z,12.50
2017-11-07T09:24:23.152Z,12.20
2017-11-07T09:26:50.611Z,12.30
2017-11-07T09:29:18.044Z,11.23
2017-11-07T09:31:45.511Z,12.68
2017-11-07T09:34:12.948Z,12.13
2017-11-07T09:36:40.411Z,13.30
2017-11-07T09:39:07.869Z,11.52
2017-11-07T09:41:36.064Z,12.70
2017-11-07T09:44:03.527Z,12.10
2017-11-07T09:46:31.765Z,11.68
2017-11-07T09:48:59.228Z,12.70
2017-11-07T09:51:26.680Z,12.50
2017-11-07T09:53:54.899Z,10.70
2017-11-07T09:56:22.370Z,11.07
2017-11-07T09:58:49.828Z,12.40
2017-11-07T10:01:17.296Z,11.27
2017-11-07T10:03:44.760Z,10.27
2017-11-07T10:06:13.029Z,10.45
2017-11-07T10:08:40.500Z,10.53
2017-11-07T10:11:08.797Z,10.30
2017-11-07T10:13:36.277Z,10.30
2017-11-07T10:16:03.730Z,12.05
2017-11-07T10:18:31.191Z,11.10
2017-11-07T10:20:58.645Z,11.23
2017-11-07T10:23:26.117Z,10.77
2017-11-07T10:25:53.569Z,10.75
2017-11-07T10:28:21.815Z,9.48
2017-11-07T10:30:49.265Z,10.13
2017-11-07T10:33:16.744Z,11.15
2017-11-07T10:35:44.225Z,10.57
2017-11-07T10:38:11.892Z,10.13
2017-11-07T10:40:40.099Z,10.50
2017-11-07T10:43:07.556Z,9.50
2017-11-07T10:45:35.025Z,10.43
2017-11-07T10:48:02.540Z,10.13
2017-11-07T10:50:30.299Z,9.93
2017-11-07T10:52:57.757Z,12.13
2017-11-07T10:55:25.708Z,10.55
2017-11-07T10:57:53.201Z,10.00
2017-11-07T11:00:21.436Z,10.20
2017-11-07T11:02:49.780Z,10.30
2017-11-07T11:05:17.813Z,10.10
2017-11-07T11:07:45.278Z,10.52
2017-11-07T11:10:13.365Z,9.48
2017-11-07T11:12:40.810Z,9.80
2017-11-07T11:15:09.713Z,10.52
2017-11-07T11:17:37.168Z,10.07
2017-11-07T11:20:04.643Z,9.85
2017-11-07T11:22:32.792Z,10.02
2017-11-07T11:25:00.302Z,9.45
2017-11-07T11:27:27.761Z,9.13
2017-11-07T11:29:55.220Z,9.30
2017-11-07T11:32:22.712Z,10.77
2017-11-07T11:34:50.171Z,10.80
2017-11-07T11:37:17.648Z,9.77
2017-11-07T11:39:45.116Z,10.55
2017-11-07T11:42:13.541Z,10.00
2017-11-07T11:44:41.003Z,10.45
2017-11-07T11:47:08.434Z,10.85
2017-11-07T11:49:36.682Z,11.48
2017-11-07T11:52:04.168Z,11.70
2017-11-07T11:54:31.637Z,10.35
2017-11-07T11:56:59.157Z,11.50
2017-11-07T11:59:27.409Z,12.98
2017-11-07T12:01:54.886Z,11.77
2017-11-07T12:04:22.324Z,11.98
2017-11-07T12:06:49.784Z,11.35
2017-11-07T12:09:17.344Z,11.25
2017-11-07T12:11:45.616Z,11.68
2017-11-07T12:14:13.060Z,11.57
2017-11-07T12:16:40.532Z,11.30
2017-11-07T12:19:07.981Z,11.43
2017-11-07T12:21:36.213Z,11.80
2017-11-07T12:24:03.687Z,11.12
2017-11-07T12:26:31.244Z,10.50
2017-11-07T12:28:58.720Z,10.57
2017-11-07T12:31:26.188Z,11.40
2017-11-07T12:33:53.648Z,11.93
2017-11-07T12:36:21.957Z,11.65
2017-11-07T12:38:50.084Z,12.10
2017-11-07T12:41:17.537Z,12.10
2017-11-07T12:43:44.995Z,12.80
2017-11-07T12:46:12.438Z,10.48
2017-11-07T12:48:39.892Z,12.05
2017-11-07T12:51:19.309Z,12.32
2017-11-07T12:53:46.763Z,11.43
2017-11-07T12:56:14.204Z,11.07
2017-11-07T12:58:41.655Z,12.10
2017-11-07T13:01:09.880Z,11.68
2017-11-07T13:03:38.079Z,12.45
2017-11-07T13:06:06.309Z,11.15
2017-11-07T13:08:34.410Z,11.85
2017-11-07T13:11:01.897Z,12.43
2017-11-07T13:13:29.356Z,11.45
2017-11-07T13:15:56.836Z,11.20
2017-11-07T13:18:24.274Z,10.82
2017-11-07T13:20:51.737Z,10.10
2017-11-07T13:23:19.973Z,10.85
2017-11-07T13:25:47.417Z,10.95
2017-11-07T13:28:14.901Z,10.20
2017-11-07T13:30:42.340Z,11.00
2017-11-07T13:33:09.772Z,10.70
2017-11-07T13:35:37.318Z,11.48
2017-11-07T13:38:05.567Z,10.45
2017-11-07T13:40:33.028Z,10.18
2017-11-07T13:43:00.503Z,10.27
2017-11-07T13:45:27.959Z,10.23
2017-11-07T13:47:55.437Z,11.48
2017-11-07T13:50:22.900Z,11.88
2017-11-07T13:52:50.342Z,11.43
2017-11-07T13:55:18.541Z,10.15
2017-11-07T13:57:45.999Z,10.95
2017-11-07T14:00:14.234Z,10.15
2017-11-07T14:02:41.700Z,11.95
2017-11-07T14:05:09.183Z,11.35
2017-11-07T14:07:36.689Z,10.13
2017-11-07T14:10:04.154Z,10.43
2017-11-07T14:12:31.618Z,11.68
2017-11-07T14:14:59.082Z,10.82
2017-11-07T14:17:26.555Z,10.90
2017-11-07T14:19:54.009Z,11.25
2017-11-07T14:22:22.976Z,10.20
2017-11-07T14:24:50.853Z,9.70
2017-11-07T14:27:18.280Z,11.18
2017-11-07T14:29:45.718Z,9.30
2017-11-07T14:32:13.245Z,10.20
2017-11-07T14:34:40.729Z,10.63
2017-11-07T14:37:08.235Z,10.23
2017-11-07T14:39:35.682Z,10.40
2017-11-07T14:42:03.168Z,10.40
2017-11-07T14:44:30.612Z,11.48
2017-11-07T14:46:58.096Z,11.18
2017-11-07T14:49:25.537Z,11.95
2017-11-07T14:51:53.785Z,10.93
2017-11-07T14:54:21.239Z,10.55
2017-11-07T14:56:48.715Z,9.57
2017-11-07T14:59:16.176Z,10.75
2017-11-07T15:01:43.629Z,10.90
2017-11-07T15:04:11.850Z,12.00
2017-11-07T15:06:39.320Z,10.63
2017-11-07T15:09:06.813Z,12.77
2017-11-07T15:11:34.307Z,11.10
2017-11-07T15:14:01.799Z,10.60
2017-11-07T15:16:29.246Z,12.02
2017-11-07T15:18:56.695Z,10.70
2017-11-07T15:21:24.871Z,11.55
2017-11-07T15:23:53.109Z,10.82
2017-11-07T15:26:20.557Z,10.93
2017-11-07T15:28:48.020Z,10.82
2017-11-07T15:31:16.248Z,12.93
2017-11-07T15:33:43.717Z,10.98
2017-11-07T15:36:11.171Z,10.18
2017-11-07T15:38:38.628Z,10.82
2017-11-07T15:41:06.882Z,11.05
2017-11-07T15:43:34.343Z,10.50
2017-11-07T15:46:01.787Z,11.45
2017-11-07T15:48:29.378Z,10.57
2017-11-07T15:50:56.824Z,10.20
2017-11-07T15:53:25.090Z,10.55
2017-11-07T15:55:52.525Z,11.18
2017-11-07T15:58:19.964Z,8.75
2017-11-07T16:00:48.258Z,11.02
2017-11-07T16:03:15.676Z,10.98
2017-11-07T16:05:43.154Z,10.55
2017-11-07T16:08:10.584Z,9.20
2017-11-07T16:10:39.408Z,10.32
2017-11-07T16:13:06.869Z,10.40
2017-11-07T16:15:35.106Z,10.13
2017-11-07T16:18:02.545Z,10.35
2017-11-07T16:20:30.015Z,9.30
2017-11-07T16:22:58.228Z,10.45
2017-11-07T16:25:25.686Z,9.30
2017-11-07T16:27:53.882Z,9.77
2017-11-07T16:30:21.905Z,9.35
2017-11-07T16:32:49.385Z,9.80
2017-11-07T16:35:16.814Z,9.30
2017-11-07T16:37:45.037Z,9.77
2017-11-07T16:40:12.510Z,9.15
2017-11-07T16:42:39.973Z,9.60
2017-11-07T16:45:07.435Z,10.70
2017-11-07T16:47:34.888Z,9.45
2017-11-07T16:50:03.129Z,9.57
2017-11-07T16:52:30.568Z,9.45
2017-11-07T16:54:58.039Z,9.38
2017-11-07T16:57:26.272Z,9.43
2017-11-07T16:59:53.773Z,9.15
2017-11-07T17:02:21.228Z,10.07
2017-11-07T17:04:48.689Z,8.90
2017-11-07T17:07:16.160Z,10.05
2017-11-07T17:09:43.619Z,10.75
2017-11-07T17:12:11.104Z,10.10
2017-11-07T17:14:38.560Z,10.95
2017-11-07T17:17:05.993Z,10.23
2017-11-07T17:19:33.484Z,10.18
2017-11-07T17:22:00.948Z,10.50
2017-11-07T17:24:28.456Z,9.55
2017-11-07T17:26:56.661Z,10.52
2017-11-07T17:29:24.410Z,11.82
2017-11-07T17:31:51.865Z,10.90
2017-11-07T17:34:19.321Z,11.05
2017-11-07T17:36:46.778Z,10.85
2017-11-07T17:39:15.070Z,10.25
2017-11-07T17:41:42.570Z,10.80
2017-11-07T17:44:10.009Z,10.00
2017-11-07T17:46:37.484Z,10.07
2017-11-07T17:49:04.952Z,10.70
2017-11-07T17:51:33.188Z,10.93
2017-11-07T17:54:00.636Z,10.25
2017-11-07T17:56:28.077Z,10.75
2017-11-07T17:58:56.325Z,11.88
2017-11-07T18:01:23.800Z,11.00
2017-11-07T18:03:51.896Z,10.27
2017-11-07T18:06:19.389Z,10.50
2017-11-07T18:08:46.854Z,10.25
2017-11-07T18:11:18.369Z,11.52
2017-11-07T18:13:45.852Z,11.10
2017-11-07T18:16:13.300Z,10.32
2017-11-07T18:18:40.768Z,10.43
2017-11-07T18:21:08.236Z,11.38
2017-11-07T18:23:36.314Z,10.48
2017-11-07T18:26:03.770Z,9.50
2017-11-07T18:28:31.258Z,10.20
2017-11-07T18:30:58.737Z,11.12
2017-11-07T18:33:26.185Z,10.75
2017-11-07T18:35:53.704Z,10.25
2017-11-07T18:38:21.247Z,11.07
2017-11-07T18:40:48.721Z,10.70
2017-11-07T18:43:16.172Z,10.88
2017-11-07T18:45:44.247Z,11.10
2017-11-07T18:48:12.466Z,10.60
2017-11-07T18:50:39.908Z,10.60
2017-11-07T18:53:08.157Z,11.93
2017-11-07T18:55:35.600Z,11.32
2017-11-07T18:58:03.063Z,10.57
2017-11-07T19:00:30.496Z,11.25
2017-11-07T19:02:57.962Z,12.30
2017-11-07T19:05:25.413Z,11.40
2017-11-07T19:07:52.903Z,11.70
2017-11-07T19:10:20.369Z,10.48
2017-11-07T19:12:47.909Z,11.75
2017-11-07T19:15:15.386Z,11.55
2017-11-07T19:17:42.826Z,11.27
2017-11-07T19:20:10.901Z,12.18
2017-11-07T19:22:38.362Z,10.80
2017-11-07T19:25:05.835Z,12.85
2017-11-07T19:27:33.300Z,12.10
2017-11-07T19:30:00.736Z,12.98
2017-11-07T19:32:28.982Z,13.32
2017-11-07T19:34:56.428Z,13.18
2017-11-07T19:37:23.896Z,11.80
2017-11-07T19:39:51.347Z,13.40
2017-11-07T19:42:19.572Z,12.82
2017-11-07T19:44:47.039Z,13.50
2017-11-07T19:47:14.509Z,13.30
2017-11-07T19:49:45.977Z,13.45
2017-11-07T19:52:13.473Z,12.50
2017-11-07T19:54:40.922Z,12.00
2017-11-07T19:57:08.392Z,13.13
2017-11-07T19:59:35.889Z,12.85
2017-11-07T20:02:03.354Z,12.60
2017-11-07T20:04:30.846Z,12.20
2017-11-07T20:06:58.277Z,14.82
2017-11-07T20:09:26.725Z,13.27
2017-11-07T20:11:54.229Z,13.98
2017-11-07T20:14:21.714Z,13.30
2017-11-07T20:16:49.144Z,14.13
2017-11-07T20:19:17.465Z,13.88
2017-11-07T20:21:45.003Z,13.98
2017-11-07T20:24:12.552Z,15.07
2017-11-07T20:26:40.765Z,15.38
2017-11-07T20:29:08.236Z,14.18
2017-11-07T20:31:35.688Z,15.07
2017-11-07T20:34:03.179Z,16.60
2017-11-07T20:36:31.441Z,15.23
2017-11-07T20:38:58.942Z,15.25
2017-11-07T20:41:26.459Z,15.02
2017-11-07T20:43:53.889Z,13.85
2017-11-07T20:46:22.107Z,18.58
2017-11-07T20:48:49.617Z,14.90
2017-11-07T20:51:17.088Z,16.12
2017-11-07T20:53:44.559Z,14.35
2017-11-07T20:56:12.001Z,15.82
2017-11-07T20:58:39.487Z,16.08
2017-11-07T21:01:10.310Z,15.40
2017-11-07T21:03:38.590Z,14.87
2017-11-07T21:06:06.041Z,16.98
2017-11-07T21:08:33.507Z,16.00
2017-11-07T21:11:01.010Z,16.75
2017-11-07T21:13:28.476Z,16.65
2017-11-07T21:15:55.936Z,17.05
2017-11-07T21:18:23.436Z,17.00
2017-11-07T21:20:57.457Z,16.27
2017-11-07T21:23:24.926Z,17.15
2017-11-07T21:25:52.419Z,17.62
2017-11-07T21:28:20.655Z,16.33
2017-11-07T21:30:48.138Z,17.20
2017-11-07T21:33:18.489Z,17.95
2017-11-07T21:35:45.950Z,16.60
2017-11-07T21:38:13.459Z,16.95
2017-11-07T21:40:40.881Z,17.17
2017-11-07T21:43:08.403Z,18.02
2017-11-07T21:45:36.292Z,16.55
2017-11-07T21:48:03.754Z,16.55
2017-11-07T21:50:31.309Z,15.80
2017-11-07T21:52:58.760Z,17.12
2017-11-07T21:55:27.002Z,16.83
2017-11-07T21:57:54.444Z,18.23
2017-11-07T22:00:21.970Z,17.40
2017-11-07T22:02:49.416Z,16.77
2017-11-07T22:05:16.933Z,17.37
2017-11-07T22:07:44.390Z,17.00
2017-11-07T22:10:16.767Z,15.73
2017-11-07T22:12:44.272Z,18.02
2017-11-07T22:15:12.595Z,16.75
2017-11-07T22:17:40.063Z,17.10
2017-11-07T22:20:07.617Z,17.00
2017-11-07T22:22:41.507Z,17.58
2017-11-07T22:25:23.763Z,17.35
2017-11-07T22:27:52.004Z,17.12
2017-11-07T22:30:19.499Z,17.65
2017-11-07T22:32:46.977Z,16.87
2017-11-07T22:35:14.461Z,16.55
2017-11-07T22:37:41.895Z,16.15
2017-11-07T22:40:09.356Z,14.77
2017-11-07T22:42:36.874Z,16.62
2017-11-07T22:45:04.340Z,17.45
2017-11-07T22:47:31.820Z,16.67
2017-11-07T22:49:59.283Z,17.92
2017-11-07T22:52:26.757Z,18.35
2017-11-07T22:54:54.201Z,15.98
2017-11-07T22:57:21.760Z,17.25
2017-11-07T22:59:50.029Z,17.00
2017-11-07T23:02:17.507Z,15.88
2017-11-07T23:04:44.944Z,16.60
2017-11-07T23:07:12.412Z,15.68
2017-11-07T23:09:39.850Z,16.12
2017-11-07T23:12:08.093Z,17.60
2017-11-07T23:14:35.576Z,15.75
2017-11-07T23:17:03.543Z,18.20
2017-11-07T23:19:30.984Z,15.93
2017-11-07T23:21:58.444Z,17.25
2017-11-07T23:24:26.678Z,15.73
2017-11-07T23:26:54.131Z,16.30
2017-11-07T23:29:21.589Z,15.90
2017-11-07T23:31:49.817Z,16.30
2017-11-07T23:34:17.276Z,15.82
2017-11-07T23:36:46.414Z,16.40
2017-11-07T23:39:13.864Z,15.90
2017-11-07T23:41:41.466Z,16.75
2017-11-07T23:44:08.938Z,16.58
2017-11-07T23:46:36.397Z,16.02
2017-11-07T23:49:03.875Z,16.27
2017-11-07T23:51:34.264Z,16.50
2017-11-07T23:54:01.737Z,14.40
2017-11-07T23:56:29.198Z,16.10
2017-11-07T23:58:56.672Z,15.60
